Time;durP1;ratioP1;P1;durP2;ratioP2;P2;SDS_P1;SDS_P2;PMS_P1;PMS_P2;Temp;Humidity;BMP_temperature;BMP_pressure;BME280_temperature;BME280_humidity;BME280_pressure;Samples;Min_cycle;Max_cycle;Signal;HPM_P1;HPM_P2
2023/07/15 00:00:15;;;;;;;0.00;0.00;;;;;;;21.26;51.79;100262.03;5053738;28;20021;-48
2023/07/15 00:02:42;;;;;;;0.00;0.00;;;;;;;21.28;52.03;100256.75;5053327;28;20029;-45
2023/07/15 00:05:20;;;;;;;0.00;0.00;;;;;;;21.18;52.80;100258.75;5052839;28;20053;-46
2023/07/15 00:07:46;;;;;;;0.00;0.00;;;;;;;21.25;52.09;100268.16;5053314;28;20037;-48
2023/07/15 00:10:11;;;;;;;0.00;0.00;;;;;;;21.26;51.41;100258.56;5052801;28;20074;-49
2023/07/15 00:12:36;;;;;;;0.00;0.00;;;;;;;21.27;51.12;100266.38;5053212;28;20021;-49
2023/07/15 00:15:02;;;;;;;0.00;0.00;;;;;;;21.38;50.57;100258.25;5053581;28;20025;-46
2023/07/15 00:17:28;;;;;;;0.00;0.00;;;;;;;21.41;50.55;100257.31;5052218;28;20118;-46
2023/07/15 00:19:53;;;;;;;0.00;0.00;;;;;;;21.43;50.26;100259.00;5053231;28;20028;-47
2023/07/15 00:22:19;;;;;;;0.00;0.00;;;;;;;21.34;50.66;100252.25;5053185;28;20037;-47
2023/07/15 00:24:46;;;;;;;0.00;0.00;;;;;;;21.34;50.66;100251.38;5052277;28;20024;-46
2023/07/15 00:27:11;;;;;;;0.08;0.00;;;;;;;21.32;50.61;100258.41;5052942;28;20033;-49
2023/07/15 00:29:36;;;;;;;0.00;0.00;;;;;;;21.32;50.50;100253.19;5052977;28;20021;-49
2023/07/15 00:32:04;;;;;;;0.00;0.00;;;;;;;21.27;50.62;100255.91;5052226;28;20029;-48
2023/07/15 00:34:30;;;;;;;0.05;0.00;;;;;;;21.26;50.79;100254.16;5052697;28;20025;-49
2023/07/15 00:36:56;;;;;;;0.00;0.00;;;;;;;21.27;50.48;100258.53;5053243;28;20029;-49
2023/07/15 00:39:21;;;;;;;0.00;0.00;;;;;;;21.23;50.81;100254.25;5052350;28;20095;-49
2023/07/15 00:41:47;;;;;;;0.00;0.00;;;;;;;21.25;50.46;100251.59;5052785;28;20483;-47
2023/07/15 00:44:15;;;;;;;0.00;0.00;;;;;;;21.31;50.33;100249.69;5052953;28;20102;-45
2023/07/15 00:47:03;;;;;;;0.38;0.00;;;;;;;21.35;50.30;100253.09;5051868;28;20032;-49
2023/07/15 00:49:33;;;;;;;0.00;0.00;;;;;;;21.31;50.50;100264.56;5052762;28;20033;-47
2023/07/15 00:52:00;;;;;;;0.00;0.00;;;;;;;21.29;50.70;100258.47;5052790;28;20510;-46
2023/07/15 00:54:25;;;;;;;0.00;0.00;;;;;;;21.34;50.01;100262.72;5051758;28;20104;-46
2023/07/15 00:56:51;;;;;;;0.00;0.00;;;;;;;21.39;49.98;100265.22;5052613;28;20147;-50
2023/07/15 00:59:16;;;;;;;0.00;0.00;;;;;;;21.44;49.83;100267.75;5052646;28;20040;-47
2023/07/15 01:01:44;;;;;;;0.00;0.00;;;;;;;21.46;49.19;100268.53;5051579;28;20040;-45
2023/07/15 01:04:09;;;;;;;;;;;;;;;21.48;50.75;100269.38;5053288;28;20017;-45
2023/07/15 01:06:35;;;;;;;0.00;0.00;;;;;;;21.32;50.12;100272.38;5051557;28;19919;-46
2023/07/15 01:09:04;;;;;;;0.00;0.00;;;;;;;21.28;50.37;100272.47;5052721;28;20028;-48
2023/07/15 01:11:29;;;;;;;0.00;0.00;;;;;;;21.24;50.46;100269.09;5052320;28;20024;-46
2023/07/15 01:13:58;;;;;;;0.00;0.00;;;;;;;21.24;50.00;100270.84;5051743;28;20032;-46
2023/07/15 01:16:23;;;;;;;0.00;0.00;;;;;;;21.21;50.32;100277.00;5052266;28;20021;-46
2023/07/15 01:18:49;;;;;;;0.00;0.00;;;;;;;21.21;50.11;100277.88;5052785;28;20027;-47
2023/07/15 01:21:15;;;;;;;0.00;0.00;;;;;;;21.18;50.34;100277.94;5051676;28;20025;-45
2023/07/15 01:23:40;;;;;;;0.00;0.00;;;;;;;21.10;50.86;100279.03;5051916;28;20133;-45
2023/07/15 01:26:05;;;;;;;0.00;0.00;;;;;;;21.09;50.63;100279.94;5052554;28;20024;-49
2023/07/15 01:28:31;;;;;;;0.00;0.00;;;;;;;21.00;50.88;100271.38;5051388;28;20025;-50
2023/07/15 01:30:58;;;;;;;0.00;0.00;;;;;;;20.93;51.38;100269.81;5052417;28;20025;-46
2023/07/15 01:33:24;;;;;;;0.00;0.00;;;;;;;20.92;51.24;100270.69;5052347;28;20082;-49
2023/07/15 01:35:50;;;;;;;0.00;0.00;;;;;;;20.83;51.83;100270.91;5051797;28;20029;-48
2023/07/15 01:38:16;;;;;;;0.00;0.00;;;;;;;20.74;51.95;100276.34;5052499;28;20134;-51
2023/07/15 01:40:42;;;;;;;0.10;0.03;;;;;;;20.71;52.37;100275.50;5051932;28;20071;-48
2023/07/15 01:43:07;;;;;;;0.00;0.00;;;;;;;20.66;52.48;100273.88;5053137;28;20060;-49
2023/07/15 01:45:33;;;;;;;0.00;0.00;;;;;;;20.63;52.67;100279.16;5055829;28;20056;-49
2023/07/15 01:47:58;;;;;;;0.00;0.00;;;;;;;20.60;52.45;100280.06;5056356;28;20029;-49
2023/07/15 01:50:24;;;;;;;0.00;0.00;;;;;;;20.46;53.52;100292.59;5055164;28;20021;-46
2023/07/15 01:52:49;;;;;;;0.00;0.00;;;;;;;20.42;53.66;100291.78;5056220;28;20036;-47
2023/07/15 01:55:15;;;;;;;0.00;0.00;;;;;;;20.30;54.29;100287.66;5056129;28;20428;-46
2023/07/15 01:57:40;;;;;;;0.00;0.00;;;;;;;20.27;54.54;100292.97;5054860;28;20025;-49
2023/07/15 02:00:07;;;;;;;0.00;0.00;;;;;;;20.26;54.43;100286.00;5055917;28;20032;-48
2023/07/15 02:02:33;;;;;;;0.00;0.00;;;;;;;20.18;55.17;100282.66;5055570;28;20377;-48
2023/07/15 02:04:58;;;;;;;0.00;0.00;;;;;;;20.06;55.68;100296.84;5055249;28;20457;-49
2023/07/15 02:07:23;;;;;;;0.20;0.10;;;;;;;20.01;55.45;100299.56;5055435;28;20040;-49
2023/07/15 02:09:49;;;;;;;0.00;0.00;;;;;;;19.99;56.50;100296.09;5055087;28;20021;-45
2023/07/15 02:12:14;;;;;;;0.00;0.00;;;;;;;19.93;56.46;100290.97;5055837;28;20131;-47
2023/07/15 02:14:39;;;;;;;0.00;0.00;;;;;;;19.84;56.89;100299.81;5055346;28;20099;-46
2023/07/15 02:17:06;;;;;;;0.00;0.00;;;;;;;19.62;59.10;100291.47;5055173;28;20455;-47
2023/07/15 02:19:31;;;;;;;0.00;0.00;;;;;;;19.46;59.81;100293.47;5055489;28;20036;-49
2023/07/15 02:22:00;;;;;;;0.00;0.00;;;;;;;19.46;59.32;100297.81;5055837;28;20041;-45
2023/07/15 02:24:25;;;;;;;0.00;0.00;;;;;;;19.42;59.00;100300.50;5054535;28;20488;-44
2023/07/15 02:26:51;;;;;;;0.00;0.00;;;;;;;19.28;61.28;100305.09;5055504;28;20029;-49
2023/07/15 02:29:17;;;;;;;0.00;0.00;;;;;;;19.35;59.63;100306.72;5055564;28;20434;-47
2023/07/15 02:31:43;;;;;;;0.00;0.00;;;;;;;19.30;60.19;100295.47;5054322;28;20044;-47
2023/07/15 02:34:09;;;;;;;0.00;0.00;;;;;;;19.16;61.85;100305.25;5055543;28;20469;-45
2023/07/15 02:36:35;;;;;;;0.00;0.00;;;;;;;19.16;61.60;100307.88;5055013;28;20063;-45
2023/07/15 02:39:00;;;;;;;0.00;0.00;;;;;;;18.88;67.23;100305.63;5054566;28;20021;-44
2023/07/15 02:41:26;;;;;;;0.00;0.00;;;;;;;18.85;64.91;100305.66;5055177;28;20385;-47
2023/07/15 02:43:51;;;;;;;0.00;0.00;;;;;;;18.56;68.30;100304.28;5055141;28;20029;-45
2023/07/15 02:46:16;;;;;;;0.00;0.00;;;;;;;18.49;68.65;100298.28;5054575;28;20079;-45
2023/07/15 02:48:42;;;;;;;0.00;0.00;;;;;;;18.37;70.31;100288.84;5055070;28;20446;-45
2023/07/15 02:51:07;;;;;;;0.10;0.10;;;;;;;18.41;66.53;100294.88;5055189;28;20655;-44
2023/07/15 02:53:33;;;;;;;0.00;0.00;;;;;;;18.39;66.60;100294.03;5053907;28;20074;-44
2023/07/15 02:55:58;;;;;;;0.00;0.00;;;;;;;18.28;69.20;100288.94;5055308;28;20051;-48
2023/07/15 02:58:23;;;;;;;0.00;0.00;;;;;;;18.22;69.13;100283.81;5054545;28;20029;-44
2023/07/15 03:00:51;;;;;;;0.00;0.00;;;;;;;18.18;69.01;100287.31;5054338;28;20037;-45
2023/07/15 03:03:16;;;;;;;0.00;0.00;;;;;;;18.05;70.48;100287.44;5054905;28;20483;-45
2023/07/15 03:05:49;;;;;;;0.05;0.05;;;;;;;17.98;69.56;100291.00;5054796;28;20024;-51
2023/07/15 03:08:14;;;;;;;0.00;0.00;;;;;;;17.95;69.70;100291.03;5054131;28;20177;-45
2023/07/15 03:10:43;;;;;;;0.00;0.00;;;;;;;17.94;71.20;100289.31;5054578;28;20105;-44
2023/07/15 03:13:09;;;;;;;0.00;0.00;;;;;;;17.85;71.11;100294.56;5053876;28;20025;-48
2023/07/15 03:15:35;;;;;;;0.00;0.00;;;;;;;17.70;74.24;100288.63;5054484;28;20051;-45
2023/07/15 03:18:02;;;;;;;0.00;0.00;;;;;;;17.64;72.69;100291.28;5054568;28;20025;-45
2023/07/15 03:20:28;;;;;;;0.00;0.00;;;;;;;17.60;73.65;100281.78;5053633;28;20021;-46
2023/07/15 03:22:54;;;;;;;0.00;0.00;;;;;;;17.47;74.75;100291.44;5054185;28;20485;-49
2023/07/15 03:25:20;;;;;;;0.00;0.00;;;;;;;17.44;74.62;100292.31;5054117;28;20040;-44
2023/07/15 03:27:46;;;;;;;0.10;0.10;;;;;;;17.31;77.22;100288.06;5053538;28;20171;-46
2023/07/15 03:30:12;;;;;;;0.00;0.00;;;;;;;17.36;75.49;100294.09;5054470;28;20021;-46
2023/07/15 03:32:38;;;;;;;0.00;0.00;;;;;;;17.19;79.05;100293.34;5054033;28;20025;-45
2023/07/15 03:35:04;;;;;;;0.08;0.08;;;;;;;17.17;78.14;100289.88;5053459;28;20070;-43
2023/07/15 03:37:32;;;;;;;0.00;0.00;;;;;;;17.01;80.52;100299.53;5053863;28;20013;-45
2023/07/15 03:39:58;;;;;;;0.00;0.00;;;;;;;17.00;80.69;100290.84;5054017;28;20021;-44
2023/07/15 03:42:24;;;;;;;0.00;0.00;;;;;;;17.03;78.93;100293.47;5053148;28;20052;-45
2023/07/15 03:44:49;;;;;;;0.00;0.00;;;;;;;16.94;78.38;100290.91;5053851;28;20416;-46
2023/07/15 03:47:15;;;;;;;0.00;0.00;;;;;;;16.93;79.22;100289.19;5053922;28;20035;-46
2023/07/15 03:49:43;;;;;;;0.00;0.00;;;;;;;16.91;80.95;100294.41;5053103;28;20027;-44
2023/07/15 03:52:08;;;;;;;0.00;0.00;;;;;;;16.86;81.75;100290.03;5053872;28;20173;-43
2023/07/15 03:54:33;;;;;;;0.00;0.00;;;;;;;16.89;80.34;100284.84;5053481;28;20020;-44
2023/07/15 03:56:59;;;;;;;0.00;0.00;;;;;;;16.86;80.38;100284.84;5052919;28;20036;-46
2023/07/15 03:59:24;;;;;;;0.00;0.00;;;;;;;16.83;80.74;100296.13;5053622;28;20029;-46
2023/07/15 04:01:49;;;;;;;0.00;0.00;;;;;;;16.79;81.06;100290.06;5053930;28;20032;-45
2023/07/15 04:04:14;;;;;;;0.00;0.00;;;;;;;16.75;83.05;100288.34;5052850;28;20350;-45
2023/07/15 04:06:40;;;;;;;0.00;0.00;;;;;;;16.82;81.02;100291.78;5052697;28;20047;-44
2023/07/15 04:09:05;;;;;;;0.00;0.00;;;;;;;16.78;83.56;100285.75;5053472;28;20033;-45
2023/07/15 04:11:32;;;;;;;0.00;0.00;;;;;;;16.78;82.42;100288.34;5052424;28;20021;-43
2023/07/15 04:13:58;;;;;;;0.10;0.10;;;;;;;16.75;85.08;100282.28;5053416;28;20393;-47
2023/07/15 04:16:23;;;;;;;0.10;0.10;;;;;;;16.75;83.26;100282.28;5052560;28;20474;-44
2023/07/15 04:18:48;;;;;;;0.10;0.10;;;;;;;16.71;84.01;100289.25;5053485;28;20032;-44
2023/07/15 04:21:14;;;;;;;0.00;0.00;;;;;;;16.77;83.54;100285.72;5053359;28;20056;-43
2023/07/15 04:23:39;;;;;;;0.10;0.10;;;;;;;16.73;86.82;100290.13;5051883;28;20393;-47
2023/07/15 04:26:07;;;;;;;0.00;0.00;;;;;;;16.77;85.87;100299.63;5053269;28;20504;-46
2023/07/15 04:28:33;;;;;;;0.00;0.00;;;;;;;16.76;86.07;100297.91;5053015;28;20021;-47
2023/07/15 04:30:58;;;;;;;0.00;0.00;;;;;;;16.81;86.26;100303.09;5052543;28;20035;-44
2023/07/15 04:33:24;;;;;;;0.08;0.08;;;;;;;16.81;88.34;100294.41;5052849;28;20032;-47
2023/07/15 04:35:49;;;;;;;0.08;0.08;;;;;;;16.83;87.79;100300.47;5053076;28;20044;-43
2023/07/15 04:38:15;;;;;;;0.00;0.00;;;;;;;16.82;87.77;100304.78;5052138;28;20025;-46
2023/07/15 04:40:40;;;;;;;0.00;0.00;;;;;;;16.87;88.22;100313.44;5052689;28;20548;-43
2023/07/15 04:43:05;;;;;;;0.10;0.10;;;;;;;16.85;90.02;100309.13;5053071;28;20087;-47
2023/07/15 04:45:32;;;;;;;0.00;0.00;;;;;;;16.99;86.50;100316.91;5052028;28;20021;-44
2023/07/15 04:47:57;;;;;;;0.08;0.08;;;;;;;17.02;86.80;100309.09;5052834;28;20495;-44
2023/07/15 04:50:23;;;;;;;0.10;0.00;;;;;;;17.05;88.92;100317.72;5052651;28;20025;-44
2023/07/15 04:52:48;;;;;;;0.10;0.10;;;;;;;17.13;90.45;100317.69;5051902;28;20044;-45
2023/07/15 04:55:14;;;;;;;0.00;0.00;;;;;;;17.12;91.04;100315.97;5052821;28;20029;-47
2023/07/15 04:57:40;;;;;;;0.10;0.10;;;;;;;17.26;85.99;100316.75;5052643;28;20021;-47
2023/07/15 05:00:10;;;;;;;0.00;0.00;;;;;;;17.40;83.74;100314.06;5052187;28;20024;-44
2023/07/15 05:02:36;;;;;;;0.10;0.10;;;;;;;17.52;84.52;100307.88;5052739;28;20017;-44
2023/07/15 05:05:02;;;;;;;0.13;0.10;;;;;;;17.63;82.00;100307.78;5052849;28;20017;-46
2023/07/15 05:07:27;;;;;;;0.10;0.10;;;;;;;17.72;83.13;100310.31;5051424;28;20039;-44
2023/07/15 05:09:54;;;;;;;0.00;0.00;;;;;;;17.81;81.14;100304.16;5052620;28;20047;-45
2023/07/15 05:12:19;;;;;;;0.00;0.00;;;;;;;17.93;79.89;100306.69;5052851;28;20029;-44
2023/07/15 05:14:44;;;;;;;0.00;0.00;;;;;;;18.00;79.22;100297.06;5051578;28;20028;-45
2023/07/15 05:17:10;;;;;;;0.00;0.00;;;;;;;18.08;79.50;100302.19;5052719;28;20029;-44
2023/07/15 05:19:35;;;;;;;0.20;0.00;;;;;;;18.16;78.48;100309.94;5056142;28;20024;-45
2023/07/15 05:22:01;;;;;;;0.00;0.00;;;;;;;18.24;78.12;100313.34;5056096;28;20041;-44
2023/07/15 05:24:28;;;;;;;0.00;0.00;;;;;;;18.30;79.15;100315.88;5056388;28;20095;-44
2023/07/15 05:26:54;;;;;;;0.10;0.10;;;;;;;18.41;77.51;100315.75;5055570;28;20419;-48
2023/07/15 05:29:20;;;;;;;0.00;0.00;;;;;;;18.47;79.42;100313.06;5056570;28;20116;-44
2023/07/15 05:31:45;;;;;;;0.00;0.00;;;;;;;18.54;77.97;100316.47;5056314;28;20533;-45
2023/07/15 05:34:11;;;;;;;0.00;0.00;;;;;;;18.62;78.34;100308.56;5055811;28;20527;-43
2023/07/15 05:36:36;;;;;;;0.00;0.00;;;;;;;18.71;77.49;100319.75;5056057;28;20117;-43
2023/07/15 05:39:04;;;;;;;0.10;0.10;;;;;;;18.82;77.56;100316.13;5056609;28;20028;-46
2023/07/15 05:41:30;;;;;;;0.10;0.10;;;;;;;18.91;76.52;100318.66;5055412;28;20032;-43
2023/07/15 05:43:55;;;;;;;0.10;0.10;;;;;;;19.00;77.15;100321.13;5056408;28;20025;-46
2023/07/15 05:46:20;;;;;;;0.00;0.00;;;;;;;19.10;77.07;100313.19;5056372;28;20064;-45
2023/07/15 05:48:46;;;;;;;0.00;0.00;;;;;;;19.19;77.73;100318.28;5055169;28;20124;-45
2023/07/15 05:51:12;;;;;;;0.00;0.00;;;;;;;19.31;77.06;100317.22;5056205;28;20036;-45
2023/07/15 05:53:37;;;;;;;0.00;0.00;;;;;;;19.40;77.23;100325.78;5056137;28;20021;-45
2023/07/15 05:56:03;;;;;;;0.00;0.00;;;;;;;19.53;76.08;100330.81;5055438;28;20048;-45
2023/07/15 05:58:29;;;;;;;0.00;0.00;;;;;;;19.64;75.51;100326.31;5055779;28;20033;-46
2023/07/15 06:00:54;;;;;;;0.00;0.00;;;;;;;19.74;76.23;100319.16;5056245;28;20519;-45
2023/07/15 06:03:19;;;;;;;0.00;0.00;;;;;;;19.88;75.38;100338.13;5055105;28;20025;-44
2023/07/15 06:05:45;;;;;;;0.00;0.00;;;;;;;20.04;75.74;100330.03;5055647;28;20025;-49
2023/07/15 06:08:10;;;;;;;0.00;0.00;;;;;;;20.14;74.35;100330.69;5056083;28;20066;-44
2023/07/15 06:10:35;;;;;;;0.00;0.00;;;;;;;20.19;72.98;100324.50;5055037;28;20056;-47
2023/07/15 06:13:01;;;;;;;0.00;0.00;;;;;;;20.27;71.60;100328.72;5055783;28;20025;-48
2023/07/15 06:15:26;;;;;;;0.00;0.00;;;;;;;20.31;71.17;100333.00;5055357;28;20033;-49
2023/07/15 06:17:52;;;;;;;0.00;0.00;;;;;;;20.39;71.71;100336.34;5054936;28;20024;-49
2023/07/15 06:20:18;;;;;;;0.00;0.00;;;;;;;20.49;71.09;100335.28;5055656;28;20380;-47
2023/07/15 06:22:44;;;;;;;0.00;0.00;;;;;;;20.59;70.58;100335.94;5055049;28;20052;-45
2023/07/15 06:25:11;;;;;;;0.00;0.00;;;;;;;20.66;71.05;100321.84;5054988;28;20029;-48
2023/07/15 06:27:37;;;;;;;0.00;0.00;;;;;;;20.68;71.55;100341.00;5055109;28;20430;-47
2023/07/15 06:30:04;;;;;;;0.00;0.00;;;;;;;20.84;72.08;100340.72;5054426;28;20483;-45
2023/07/15 06:32:29;;;;;;;0.00;0.00;;;;;;;20.89;72.47;100331.03;5055205;28;20041;-49
2023/07/15 06:34:55;;;;;;;0.00;0.00;;;;;;;20.90;73.46;100330.09;5055369;28;20104;-44
2023/07/15 06:37:20;;;;;;;0.00;0.00;;;;;;;20.87;74.12;100330.19;5054856;28;20040;-46
2023/07/15 06:39:46;;;;;;;0.00;0.00;;;;;;;20.92;74.55;100333.56;5055206;28;20029;-45
2023/07/15 06:42:11;;;;;;;0.00;0.00;;;;;;;21.09;74.55;100334.97;5055351;28;20025;-44
2023/07/15 06:44:36;;;;;;;0.00;0.00;;;;;;;21.23;74.20;100340.75;5054213;28;20028;-48
2023/07/15 06:47:01;;;;;;;0.00;0.00;;;;;;;21.51;74.59;100348.81;5055143;28;20047;-45
2023/07/15 06:49:27;;;;;;;0.00;0.00;;;;;;;21.76;73.41;100345.63;5054977;28;20033;-49
2023/07/15 06:51:52;;;;;;;0.00;0.00;;;;;;;22.01;72.83;100338.00;5054419;28;20029;-46
2023/07/15 06:54:17;;;;;;;0.00;0.00;;;;;;;22.04;71.36;100342.31;5055452;28;20021;-45
2023/07/15 06:56:43;;;;;;;0.00;0.00;;;;;;;22.12;71.60;100340.34;5054926;28;20163;-44
2023/07/15 06:59:08;;;;;;;0.00;0.00;;;;;;;22.13;71.88;100333.31;5054561;28;20062;-47
2023/07/15 07:01:33;;;;;;;0.00;0.00;;;;;;;22.03;71.68;100324.84;5054719;28;20025;-49
2023/07/15 07:03:59;;;;;;;0.00;0.00;;;;;;;22.02;71.61;100326.59;5054897;28;20033;-45
2023/07/15 07:06:25;;;;;;;0.00;0.00;;;;;;;22.11;73.21;100328.13;5053624;28;20187;-46
2023/07/15 07:08:51;;;;;;;0.00;0.00;;;;;;;22.14;73.10;100332.41;5054753;28;20472;-44
2023/07/15 07:11:16;;;;;;;0.00;0.00;;;;;;;22.25;73.29;100330.38;5054828;28;20055;-48
2023/07/15 07:13:41;;;;;;;0.00;0.00;;;;;;;22.31;71.72;100327.59;5053683;28;20537;-44
2023/07/15 07:16:07;;;;;;;0.03;0.00;;;;;;;22.42;71.36;100326.47;5054785;28;20029;-44
2023/07/15 07:18:32;;;;;;;0.00;0.00;;;;;;;22.58;70.73;100333.00;5054314;28;20025;-47
2023/07/15 07:20:59;;;;;;;0.00;0.00;;;;;;;22.67;70.63;100332.75;5053694;28;20100;-45
2023/07/15 07:23:25;;;;;;;0.00;0.00;;;;;;;22.71;71.11;100332.63;5054049;28;20037;-48
2023/07/15 07:25:50;;;;;;;0.00;0.00;;;;;;;22.78;72.09;100339.44;5054618;28;20052;-49
2023/07/15 07:28:16;;;;;;;0.00;0.00;;;;;;;22.93;70.35;100335.50;5053730;28;20032;-49
2023/07/15 07:30:42;;;;;;;0.00;0.00;;;;;;;23.12;70.91;100354.19;5054124;28;20358;-47
2023/07/15 07:33:07;;;;;;;0.00;0.00;;;;;;;23.32;70.52;100357.09;5054332;28;20055;-44
2023/07/15 07:35:33;;;;;;;0.00;0.00;;;;;;;23.41;68.40;100345.44;5053110;28;20048;-45
2023/07/15 07:37:58;;;;;;;0.00;0.00;;;;;;;23.65;68.06;100349.06;5054331;28;20084;-44
2023/07/15 07:40:24;;;;;;;0.00;0.00;;;;;;;23.93;67.04;100345.50;5052203;28;20025;-44
2023/07/15 07:42:49;;;;;;;0.00;0.00;;;;;;;24.06;65.27;100360.91;5054111;28;20024;-44
2023/07/15 07:45:15;;;;;;;0.00;0.00;;;;;;;24.01;65.19;100353.16;5054207;28;20029;-45
2023/07/15 07:47:41;;;;;;;0.00;0.00;;;;;;;24.11;64.67;100351.06;5052904;28;20044;-48
2023/07/15 07:50:07;;;;;;;0.00;0.00;;;;;;;24.19;65.37;100354.28;5053898;28;20029;-44
2023/07/15 07:52:32;;;;;;;0.00;0.00;;;;;;;24.10;64.34;100344.06;5053774;28;20358;-46
2023/07/15 07:54:57;;;;;;;0.55;0.00;;;;;;;24.00;65.09;100343.53;5053171;28;20016;-44
2023/07/15 07:57:23;;;;;;;0.00;0.00;;;;;;;24.02;65.07;100340.88;5053431;28;20096;-45
2023/07/15 07:59:48;;;;;;;0.00;0.00;;;;;;;23.99;65.18;100352.34;5053795;28;20384;-44
2023/07/15 08:02:13;;;;;;;0.00;0.00;;;;;;;24.05;65.50;100352.13;5053113;28;20033;-45
2023/07/15 08:04:41;;;;;;;0.00;0.00;;;;;;;24.07;64.92;100339.78;5053311;28;20036;-49
2023/07/15 08:07:07;;;;;;;0.00;0.00;;;;;;;23.93;64.93;100342.88;5053593;28;20465;-44
2023/07/15 08:09:32;;;;;;;0.00;0.00;;;;;;;24.00;66.51;100354.94;5052467;28;20052;-46
2023/07/15 08:11:58;;;;;;;0.52;0.00;;;;;;;23.91;66.85;100360.50;5053565;28;20037;-43
2023/07/15 08:14:24;;;;;;;0.00;0.00;;;;;;;23.90;68.24;100356.16;5053288;28;20078;-48
2023/07/15 08:16:50;;;;;;;0.00;0.00;;;;;;;24.00;67.45;100360.19;5052787;28;20028;-48
2023/07/15 08:19:16;;;;;;;0.00;0.00;;;;;;;24.24;66.50;100354.13;5053447;28;20029;-43
2023/07/15 08:21:41;;;;;;;0.00;0.00;;;;;;;24.32;66.52;100360.84;5053062;28;20056;-44
2023/07/15 08:24:07;;;;;;;0.00;0.00;;;;;;;24.46;65.42;100356.84;5052726;28;20025;-46
2023/07/15 08:26:32;;;;;;;0.00;0.00;;;;;;;24.44;64.67;100361.31;5053054;28;20116;-44
2023/07/15 08:29:00;;;;;;;0.00;0.00;;;;;;;24.30;64.36;100369.72;5053367;28;20045;-43
2023/07/15 08:31:25;;;;;;;0.00;0.00;;;;;;;24.17;65.11;100374.56;5052134;28;20028;-44
2023/07/15 08:33:51;;;;;;;0.00;0.00;;;;;;;24.14;66.04;100366.75;5053266;28;20024;-43
2023/07/15 08:36:16;;;;;;;0.00;0.00;;;;;;;24.09;66.71;100373.94;5053437;28;20083;-47
2023/07/15 08:38:42;;;;;;;0.00;0.00;;;;;;;23.92;66.60;100367.47;5052240;28;20484;-44
2023/07/15 08:41:09;;;;;;;0.00;0.00;;;;;;;23.84;66.76;100374.75;5053242;28;20028;-46
2023/07/15 08:43:34;;;;;;;0.00;0.00;;;;;;;23.85;68.07;100376.47;5052412;28;20534;-44
2023/07/15 08:46:08;;;;;;;0.00;0.00;;;;;;;23.80;67.64;100378.41;5052622;28;20041;-43
2023/07/15 08:48:34;;;;;;;0.00;0.00;;;;;;;23.87;68.14;100385.16;5052904;28;20037;-45
2023/07/15 08:51:00;;;;;;;0.00;0.00;;;;;;;23.96;67.67;100395.44;5052313;28;20029;-48
2023/07/15 08:53:27;;;;;;;0.00;0.00;;;;;;;24.05;67.67;100403.94;5052577;28;20079;-44
2023/07/15 08:55:56;;;;;;;;;;;;;;;24.26;67.84;100395.28;5053422;28;20031;-44
2023/07/15 08:58:22;;;;;;;0.00;0.00;;;;;;;24.17;67.29;100393.00;5052051;28;20355;-43
2023/07/15 09:00:49;;;;;;;0.00;0.00;;;;;;;24.20;65.54;100400.78;5052856;28;20017;-47
2023/07/15 09:03:15;;;;;;;0.00;0.00;;;;;;;24.09;66.59;100413.44;5052853;28;20453;-45
2023/07/15 09:05:40;;;;;;;0.00;0.00;;;;;;;24.02;65.96;100419.84;5051839;28;20025;-45
2023/07/15 09:08:11;;;;;;;0.00;0.00;;;;;;;23.79;65.64;100417.00;5052767;28;20043;-46
2023/07/15 09:10:49;;;;;;;0.00;0.00;;;;;;;23.52;65.65;100413.47;5052530;28;20385;-44
2023/07/15 09:13:24;;;;;;;0.00;0.00;;;;;;;23.30;66.93;100421.16;5051816;28;20031;-48
2023/07/15 09:15:51;;;;;;;0.00;0.00;;;;;;;23.10;66.34;100412.06;5052847;28;20025;-46
2023/07/15 09:18:16;;;;;;;0.00;0.00;;;;;;;22.99;65.23;100422.88;5052780;28;20025;-49
2023/07/15 09:20:42;;;;;;;0.00;0.00;;;;;;;22.93;65.39;100414.31;5051701;28;20048;-44
2023/07/15 09:23:07;;;;;;;0.00;0.00;;;;;;;22.95;65.76;100410.75;5052464;28;20049;-44
2023/07/15 09:25:35;;;;;;;0.00;0.00;;;;;;;23.07;65.39;100416.56;5052525;28;20492;-48
2023/07/15 09:28:01;;;;;;;0.00;0.00;;;;;;;23.33;65.39;100421.94;5051608;28;20859;-45
2023/07/15 09:30:26;;;;;;;0.00;0.00;;;;;;;23.58;64.40;100421.19;5052497;28;20074;-44
2023/07/15 09:32:52;;;;;;;0.00;0.00;;;;;;;23.91;63.15;100418.41;5051855;28;20025;-46
2023/07/15 09:35:17;;;;;;;0.00;0.00;;;;;;;24.20;61.60;100429.72;5052476;28;20392;-44
2023/07/15 09:37:49;;;;;;;0.00;0.00;;;;;;;24.12;61.30;100418.63;5052204;28;20025;-44
2023/07/15 09:40:15;;;;;;;0.00;0.00;;;;;;;24.05;60.70;100419.72;5051587;28;20500;-45
2023/07/15 09:42:59;;;;;;;0.00;0.00;;;;;;;23.90;62.12;100427.22;5052320;28;20033;-45
2023/07/15 09:45:38;;;;;;;0.00;0.00;;;;;;;23.73;63.14;100422.47;5052318;28;20040;-44
2023/07/15 09:48:08;;;;;;;0.00;0.00;;;;;;;23.47;64.08;100423.28;5051595;28;20168;-47
2023/07/15 09:50:34;;;;;;;0.00;0.00;;;;;;;23.54;64.86;100435.34;5052023;28;20473;-44
2023/07/15 09:53:01;;;;;;;0.00;0.00;;;;;;;23.62;64.12;100443.00;5052258;28;20075;-48
2023/07/15 09:55:29;;;;;;;0.00;0.00;;;;;;;23.53;64.81;100446.75;5051428;28;20027;-47
2023/07/15 09:58:19;;;;;;;0.00;0.00;;;;;;;23.49;64.56;100460.91;5052283;28;20040;-44
2023/07/15 10:00:50;;;;;;;0.00;0.00;;;;;;;23.25;64.64;100455.47;5052044;28;20029;-44
2023/07/15 10:03:25;;;;;;;0.00;0.00;;;;;;;23.09;67.58;100459.44;5051543;28;20021;-48
2023/07/15 10:05:51;;;;;;;0.00;0.00;;;;;;;22.89;66.54;100458.22;5056216;28;20031;-46
2023/07/15 10:08:18;;;;;;;0.00;0.00;;;;;;;22.83;66.75;100458.41;5055207;28;20041;-46
2023/07/15 10:10:43;;;;;;;0.00;0.00;;;;;;;22.77;67.52;100448.06;5055694;28;20057;-44
2023/07/15 10:13:11;;;;;;;0.00;0.00;;;;;;;22.66;69.24;100456.25;5055940;28;20082;-45
2023/07/15 10:15:38;;;;;;;0.00;0.00;;;;;;;22.55;71.89;100440.75;5054705;28;20021;-47
2023/07/15 10:18:19;;;;;;;0.00;0.00;;;;;;;22.51;71.21;100449.63;5055728;28;20020;-44
2023/07/15 10:20:55;;;;;;;0.00;0.00;;;;;;;22.24;74.85;100435.41;5055578;28;20025;-46
2023/07/15 10:23:25;;;;;;;0.00;0.00;;;;;;;22.03;77.75;100430.66;5054836;28;20396;-44
2023/07/15 10:26:18;;;;;;;0.00;0.00;;;;;;;21.93;80.02;100418.66;5055544;28;20041;-43
2023/07/15 10:28:43;;;;;;;0.00;0.00;;;;;;;21.75;82.76;100427.00;5052480;28;20044;-49
2023/07/15 10:31:15;;;;;;;0.00;0.00;;;;;;;21.60;80.79;100415.06;5054976;28;20033;-44
2023/07/15 10:33:59;;;;;;;0.00;0.00;;;;;;;21.59;83.52;100424.72;5055115;28;20492;-47
2023/07/15 10:36:40;;;;;;;0.00;0.00;;;;;;;21.54;86.89;100431.78;5054319;28;20044;-46
2023/07/15 10:39:09;;;;;;;0.00;0.00;;;;;;;21.50;88.00;100430.16;5055548;28;20032;-43
2023/07/15 10:42:11;;;;;;;0.00;0.00;;;;;;;21.59;86.15;100424.72;5055327;28;20025;-44
2023/07/15 10:44:52;;;;;;;0.00;0.00;;;;;;;22.15;86.72;100424.22;5047194;28;20447;-47
2023/07/15 10:47:18;;;;;;;0.00;0.00;;;;;;;22.20;82.62;100416.25;5055406;28;20032;-48
2023/07/15 10:49:44;;;;;;;0.00;0.00;;;;;;;22.21;82.95;100425.84;5055020;28;20043;-49
2023/07/15 10:52:10;;;;;;;0.00;0.00;;;;;;;22.21;82.71;100423.22;5054531;28;20029;-44
2023/07/15 10:54:38;;;;;;;0.00;0.00;;;;;;;22.23;83.37;100431.91;5054934;28;20032;-45
2023/07/15 10:57:11;;;;;;;0.00;0.00;;;;;;;22.53;81.80;100422.41;5054978;28;20423;-44
2023/07/15 10:59:39;;;;;;;0.00;0.00;;;;;;;22.75;82.12;100434.09;5054223;28;20033;-48
2023/07/15 11:02:05;;;;;;;0.00;0.00;;;;;;;23.01;80.82;100447.38;5054917;28;20477;-48
2023/07/15 11:04:31;;;;;;;0.00;0.00;;;;;;;23.03;77.39;100436.81;5053943;28;20020;-46
2023/07/15 11:07:05;;;;;;;0.00;0.00;;;;;;;22.84;76.35;100444.38;5054970;28;20477;-48
2023/07/15 11:09:31;;;;;;;0.00;0.00;;;;;;;22.63;78.14;100436.19;5054626;28;20037;-45
2023/07/15 11:11:57;;;;;;;0.00;0.00;;;;;;;22.57;78.31;100424.94;5053923;28;20099;-44
2023/07/15 11:14:25;;;;;;;0.00;0.00;;;;;;;22.78;76.98;100429.63;5054464;28;20017;-44
2023/07/15 11:16:55;;;;;;;0.00;0.00;;;;;;;23.17;75.91;100432.03;5053657;28;20064;-44
2023/07/15 11:19:23;;;;;;;0.00;0.00;;;;;;;23.30;73.66;100436.94;5053913;28;20029;-47
2023/07/15 11:21:49;;;;;;;0.00;0.00;;;;;;;23.34;73.57;100426.28;5054396;28;20144;-43
2023/07/15 11:24:14;;;;;;;0.00;0.00;;;;;;;23.40;73.69;100427.00;5054396;28;20088;-47